createdAt,value
2017-10-03T00:00:27.390Z,3.20
2017-10-03T00:02:54.968Z,3.40
2017-10-03T00:05:22.540Z,3.07
2017-10-03T00:07:50.871Z,3.50
2017-10-03T00:10:18.428Z,3.50
2017-10-03T00:12:45.961Z,2.90
2017-10-03T00:15:13.531Z,2.90
2017-10-03T00:17:41.083Z,3.30
2017-10-03T00:20:08.643Z,2.60
2017-10-03T00:22:36.204Z,3.10
2017-10-03T00:25:03.771Z,2.87
2017-10-03T00:27:31.319Z,2.60
2017-10-03T00:29:58.865Z,2.73
2017-10-03T00:32:27.245Z,2.77
2017-10-03T00:34:55.554Z,2.30
2017-10-03T00:37:23.156Z,2.30
2017-10-03T00:39:50.709Z,2.73
2017-10-03T00:42:18.288Z,2.53
2017-10-03T00:44:46.614Z,2.60
2017-10-03T00:47:14.201Z,2.30
2017-10-03T00:49:41.793Z,2.33
2017-10-03T00:52:10.142Z,2.00
2017-10-03T00:54:37.711Z,2.20
2017-10-03T00:57:05.285Z,2.10
2017-10-03T00:59:32.858Z,1.83
2017-10-03T01:02:01.179Z,2.10
2017-10-03T01:04:28.742Z,2.03
2017-10-03T01:06:56.293Z,1.80
2017-10-03T01:09:23.859Z,1.73
2017-10-03T01:11:51.429Z,1.27
2017-10-03T01:14:20.628Z,2.00
2017-10-03T01:16:48.167Z,1.90
2017-10-03T01:19:15.755Z,1.93
2017-10-03T01:21:43.326Z,2.03
2017-10-03T01:24:10.913Z,1.47
2017-10-03T01:26:39.233Z,1.63
2017-10-03T01:29:06.803Z,1.80
2017-10-03T01:31:34.345Z,1.60
2017-10-03T01:34:01.906Z,1.53
2017-10-03T01:36:29.514Z,1.43
2017-10-03T01:38:57.086Z,1.87
2017-10-03T01:41:25.711Z,1.60
2017-10-03T01:43:53.265Z,1.60
2017-10-03T01:46:20.829Z,1.60
2017-10-03T01:48:48.371Z,1.70
2017-10-03T01:51:15.950Z,1.40
2017-10-03T01:53:43.518Z,1.50
2017-10-03T01:56:11.085Z,1.93
2017-10-03T01:58:38.645Z,1.93
2017-10-03T02:01:06.232Z,1.87
2017-10-03T02:03:33.773Z,1.87
2017-10-03T02:06:01.375Z,1.87
2017-10-03T02:08:29.719Z,1.70
2017-10-03T02:10:57.298Z,1.93
2017-10-03T02:13:24.851Z,1.60
2017-10-03T02:15:52.409Z,1.67
2017-10-03T02:18:19.973Z,1.50
2017-10-03T02:20:47.526Z,1.30
2017-10-03T02:23:15.181Z,1.43
2017-10-03T02:25:42.722Z,1.63
2017-10-03T02:28:10.295Z,2.20
2017-10-03T02:30:37.881Z,2.20
2017-10-03T02:33:15.873Z,2.47
2017-10-03T02:35:53.425Z,2.60
2017-10-03T02:38:21.005Z,2.30
2017-10-03T02:41:05.486Z,1.23
2017-10-03T02:43:42.020Z,1.03
2017-10-03T02:46:09.584Z,0.77
2017-10-03T02:48:47.396Z,0.70
2017-10-03T02:51:14.962Z,0.70
2017-10-03T02:53:42.558Z,1.00
2017-10-03T02:56:10.155Z,1.00
2017-10-03T02:58:46.184Z,1.37
2017-10-03T03:01:13.748Z,1.30
2017-10-03T03:03:41.317Z,1.20
2017-10-03T03:06:08.886Z,1.80
2017-10-03T03:08:36.414Z,1.20
2017-10-03T03:11:03.972Z,1.50
2017-10-03T03:13:31.560Z,2.33
2017-10-03T03:15:59.118Z,3.27
2017-10-03T03:18:26.660Z,3.10
2017-10-03T03:20:54.236Z,3.70
2017-10-03T03:23:21.798Z,3.00
2017-10-03T03:25:49.376Z,3.57
2017-10-03T03:28:17.709Z,3.53
2017-10-03T03:30:45.286Z,2.30
2017-10-03T03:33:12.837Z,1.80
2017-10-03T03:35:40.410Z,1.93
2017-10-03T03:38:07.969Z,1.90
2017-10-03T03:40:35.534Z,1.80
2017-10-03T03:43:03.124Z,1.23
2017-10-03T03:45:31.476Z,1.37
2017-10-03T03:47:59.037Z,1.70
2017-10-03T03:50:26.585Z,1.60
2017-10-03T03:52:54.138Z,1.60
2017-10-03T03:55:21.739Z,1.70
2017-10-03T03:57:50.079Z,2.40
2017-10-03T04:00:17.641Z,2.73
2017-10-03T04:02:45.184Z,2.43
2017-10-03T04:05:12.800Z,1.93
2017-10-03T04:07:41.138Z,2.43
2017-10-03T04:10:08.701Z,2.33
2017-10-03T04:12:36.274Z,2.00
2017-10-03T04:15:03.825Z,2.10
2017-10-03T04:17:31.415Z,1.77
2017-10-03T04:19:59.764Z,1.80
2017-10-03T04:22:27.320Z,1.90
2017-10-03T04:24:54.869Z,1.80
2017-10-03T04:27:22.465Z,1.50
2017-10-03T04:29:50.808Z,1.30
2017-10-03T04:32:18.375Z,1.70
2017-10-03T04:34:45.965Z,1.60
2017-10-03T04:37:14.278Z,1.80
2017-10-03T04:39:41.857Z,1.80
2017-10-03T04:42:09.417Z,1.90
2017-10-03T04:44:36.990Z,1.60
2017-10-03T04:47:04.577Z,1.80
2017-10-03T04:49:32.138Z,1.73
2017-10-03T04:52:00.450Z,1.90
2017-10-03T04:54:28.008Z,2.20
2017-10-03T04:56:55.596Z,2.23
2017-10-03T04:59:23.162Z,1.70
2017-10-03T05:01:50.780Z,1.40
2017-10-03T05:04:18.338Z,1.60
2017-10-03T05:06:45.904Z,1.53
2017-10-03T05:09:14.410Z,1.50
2017-10-03T05:11:41.977Z,1.60
2017-10-03T05:14:09.544Z,1.53
2017-10-03T05:16:37.108Z,1.70
2017-10-03T05:19:04.665Z,1.57
2017-10-03T05:21:32.207Z,1.80
2017-10-03T05:23:59.762Z,1.93
2017-10-03T05:26:29.645Z,2.37
2017-10-03T05:28:57.974Z,2.50
2017-10-03T05:31:25.516Z,2.40
2017-10-03T05:33:53.081Z,2.00
2017-10-03T05:36:20.634Z,1.77
2017-10-03T05:38:48.202Z,2.00
2017-10-03T05:41:15.751Z,2.10
2017-10-03T05:43:43.312Z,2.13
2017-10-03T05:46:10.897Z,1.80
2017-10-03T05:48:38.465Z,1.43
2017-10-03T05:51:06.060Z,1.40
2017-10-03T05:53:34.395Z,1.20
2017-10-03T05:56:01.941Z,1.27
2017-10-03T05:58:29.490Z,1.00
2017-10-03T06:00:57.082Z,1.30
2017-10-03T06:03:24.656Z,1.00
2017-10-03T06:05:52.244Z,1.10
2017-10-03T06:08:20.576Z,0.90
2017-10-03T06:10:48.136Z,1.00
2017-10-03T06:13:15.717Z,0.90
2017-10-03T06:15:43.269Z,1.50
2017-10-03T06:18:10.829Z,1.83
2017-10-03T06:20:38.398Z,1.23
2017-10-03T06:23:05.957Z,0.93
2017-10-03T06:25:33.541Z,1.30
2017-10-03T06:28:01.844Z,1.10
2017-10-03T06:30:29.404Z,1.27
2017-10-03T06:32:56.982Z,0.83
2017-10-03T06:35:24.524Z,1.10
2017-10-03T06:37:52.086Z,0.90
2017-10-03T06:40:19.637Z,1.10
2017-10-03T06:42:47.204Z,0.83
2017-10-03T06:45:14.786Z,33.20
2017-10-03T06:47:42.345Z,7.73
2017-10-03T06:50:09.892Z,0.90
2017-10-03T06:52:37.505Z,0.90
2017-10-03T06:55:05.858Z,0.70
2017-10-03T06:57:33.449Z,0.50
2017-10-03T07:00:01.772Z,1.10
2017-10-03T07:02:29.355Z,0.80
2017-10-03T07:04:56.938Z,0.80
2017-10-03T07:07:24.530Z,0.70
2017-10-03T07:09:52.096Z,0.90
2017-10-03T07:12:19.691Z,0.70
2017-10-03T07:14:47.241Z,0.80
2017-10-03T07:17:14.802Z,0.60
2017-10-03T07:19:42.373Z,0.70
2017-10-03T07:22:09.946Z,0.80
2017-10-03T07:24:37.527Z,0.70
2017-10-03T07:27:05.151Z,1.10
2017-10-03T07:29:32.753Z,0.70
2017-10-03T07:32:01.084Z,0.83
2017-10-03T07:34:28.682Z,0.57
2017-10-03T07:36:56.264Z,2.00
2017-10-03T07:39:24.665Z,1.00
2017-10-03T07:42:00.544Z,1.03
2017-10-03T07:44:28.130Z,0.90
2017-10-03T07:47:19.254Z,0.80
2017-10-03T07:49:46.827Z,0.80
2017-10-03T07:52:14.427Z,0.70
2017-10-03T07:54:42.749Z,0.93
2017-10-03T07:57:10.301Z,0.87
2017-10-03T07:59:37.863Z,1.10
2017-10-03T08:02:05.476Z,1.30
2017-10-03T08:04:33.030Z,1.30
2017-10-03T08:07:00.587Z,1.27
2017-10-03T08:09:28.170Z,1.20
2017-10-03T08:11:56.512Z,1.00
2017-10-03T08:14:24.104Z,1.37
2017-10-03T08:16:52.436Z,0.90
2017-10-03T08:19:20.026Z,0.70
2017-10-03T08:21:47.584Z,0.60
2017-10-03T08:24:15.224Z,0.63
2017-10-03T08:26:42.807Z,0.80
2017-10-03T08:29:10.414Z,1.00
2017-10-03T08:31:37.966Z,0.63
2017-10-03T08:34:05.510Z,0.80
2017-10-03T08:36:33.882Z,0.80
2017-10-03T08:39:02.189Z,0.60
2017-10-03T08:41:29.785Z,0.90
2017-10-03T08:43:57.351Z,1.10
2017-10-03T08:46:24.917Z,1.03
2017-10-03T08:48:52.465Z,1.10
2017-10-03T08:51:20.022Z,1.00
2017-10-03T08:53:47.586Z,1.30
2017-10-03T08:56:15.159Z,1.50
2017-10-03T08:58:42.874Z,1.30
2017-10-03T09:01:10.566Z,1.73
2017-10-03T09:03:38.129Z,1.10
2017-10-03T09:06:05.758Z,1.43
2017-10-03T09:08:33.319Z,1.60
2017-10-03T09:11:00.899Z,1.50
2017-10-03T09:13:28.464Z,2.13
2017-10-03T09:15:56.020Z,1.73
2017-10-03T09:18:23.611Z,1.53
2017-10-03T09:20:51.161Z,2.40
2017-10-03T09:23:19.207Z,1.80
2017-10-03T09:25:47.463Z,1.80
2017-10-03T09:28:15.821Z,2.00
2017-10-03T09:30:45.958Z,2.20
2017-10-03T09:33:13.514Z,2.03
2017-10-03T09:35:41.067Z,1.90
2017-10-03T09:38:08.955Z,2.20
2017-10-03T09:40:38.120Z,2.27
2017-10-03T09:43:06.073Z,1.87
2017-10-03T09:45:33.650Z,2.53
2017-10-03T09:48:04.551Z,2.17
2017-10-03T09:50:33.052Z,2.37
2017-10-03T09:53:00.689Z,1.60
2017-10-03T09:55:28.287Z,2.10
2017-10-03T09:57:55.841Z,1.90
2017-10-03T10:00:23.413Z,2.17
2017-10-03T10:02:50.961Z,1.50
2017-10-03T10:05:18.500Z,1.83
2017-10-03T10:07:46.067Z,1.73
2017-10-03T10:10:13.632Z,2.70
2017-10-03T10:12:41.207Z,2.00
2017-10-03T10:15:08.773Z,2.23
2017-10-03T10:17:36.327Z,2.10
2017-10-03T10:20:03.926Z,1.83
2017-10-03T10:22:32.278Z,2.37
2017-10-03T10:24:59.830Z,1.90
2017-10-03T10:27:27.412Z,2.37
2017-10-03T10:29:55.964Z,2.00
2017-10-03T10:32:23.871Z,2.10
2017-10-03T10:34:52.283Z,2.17
2017-10-03T10:37:20.031Z,2.20
2017-10-03T10:39:47.602Z,2.37
2017-10-03T10:42:15.161Z,2.07
2017-10-03T10:44:43.937Z,2.27
2017-10-03T10:47:11.490Z,2.27
2017-10-03T10:49:39.812Z,2.30
2017-10-03T10:52:07.462Z,1.93
2017-10-03T10:54:35.046Z,2.10
2017-10-03T10:57:07.515Z,1.90
2017-10-03T10:59:35.119Z,2.33
2017-10-03T11:02:03.747Z,2.00
2017-10-03T11:04:31.321Z,2.10
2017-10-03T11:07:00.026Z,2.10
2017-10-03T11:09:27.606Z,1.77
2017-10-03T11:11:56.001Z,2.30
2017-10-03T11:14:24.370Z,2.10
2017-10-03T11:16:52.696Z,1.97
2017-10-03T11:19:20.572Z,1.83
2017-10-03T11:21:48.544Z,2.23
2017-10-03T11:24:27.880Z,2.27
2017-10-03T11:26:55.492Z,2.33
2017-10-03T11:29:23.149Z,2.10
2017-10-03T11:31:55.087Z,2.20
2017-10-03T11:34:22.693Z,2.30
2017-10-03T11:36:50.386Z,2.30
2017-10-03T11:39:17.992Z,2.50
2017-10-03T11:41:46.349Z,2.47
2017-10-03T11:44:13.898Z,2.30
2017-10-03T11:46:41.515Z,2.70
2017-10-03T11:49:09.066Z,2.30
2017-10-03T11:51:36.813Z,1.97
2017-10-03T11:54:05.174Z,2.33
2017-10-03T11:56:33.972Z,1.60
2017-10-03T11:59:02.001Z,2.10
2017-10-03T12:01:29.594Z,1.80
2017-10-03T12:03:57.856Z,1.83
2017-10-03T12:06:29.938Z,1.77
2017-10-03T12:09:01.757Z,1.73
2017-10-03T12:11:32.319Z,1.70
2017-10-03T12:13:59.954Z,1.90
2017-10-03T12:16:27.516Z,2.53
2017-10-03T12:18:55.078Z,1.70
2017-10-03T12:21:22.736Z,2.53
2017-10-03T12:23:50.301Z,2.50
2017-10-03T12:26:17.897Z,2.43
2017-10-03T12:28:45.432Z,1.93
2017-10-03T12:31:12.996Z,2.40
2017-10-03T12:33:40.591Z,2.20
2017-10-03T12:36:08.925Z,2.53
2017-10-03T12:38:36.501Z,2.03
2017-10-03T12:41:04.563Z,1.57
2017-10-03T12:43:33.851Z,1.93
2017-10-03T12:46:01.529Z,2.20
2017-10-03T12:48:31.444Z,1.90
2017-10-03T12:50:58.994Z,1.50
2017-10-03T12:53:26.585Z,1.90
2017-10-03T12:55:54.143Z,1.83
2017-10-03T12:58:21.748Z,1.90
2017-10-03T13:00:49.404Z,1.70
2017-10-03T13:03:16.964Z,2.13
2017-10-03T13:05:44.512Z,1.90
2017-10-03T13:08:12.951Z,2.00
2017-10-03T13:10:40.592Z,1.43
2017-10-03T13:13:08.685Z,1.60
2017-10-03T13:15:36.672Z,2.10
2017-10-03T13:18:25.810Z,1.80
2017-10-03T13:20:55.267Z,1.63
2017-10-03T13:23:22.826Z,1.90
2017-10-03T13:25:50.936Z,1.60
2017-10-03T13:28:18.835Z,1.73
2017-10-03T13:30:47.159Z,1.80
2017-10-03T13:33:16.166Z,2.27
2017-10-03T13:35:44.628Z,1.70
2017-10-03T13:38:12.865Z,1.90
2017-10-03T13:40:40.430Z,1.80
2017-10-03T13:43:08.997Z,2.03
2017-10-03T13:45:36.665Z,1.80
2017-10-03T13:48:04.647Z,1.97
2017-10-03T13:50:32.295Z,2.00
2017-10-03T13:52:59.885Z,2.10
2017-10-03T13:55:27.565Z,1.77
2017-10-03T13:57:55.234Z,2.30
2017-10-03T14:00:23.192Z,2.00
2017-10-03T14:02:50.740Z,2.30
2017-10-03T14:05:18.324Z,1.90
2017-10-03T14:07:45.859Z,2.13
2017-10-03T14:10:13.396Z,1.70
2017-10-03T14:12:40.960Z,2.00
2017-10-03T14:15:08.543Z,1.73
2017-10-03T14:20:46.041Z,2.10
2017-10-03T14:26:16.753Z,1.50
2017-10-03T14:28:44.406Z,1.70
2017-10-03T14:31:11.952Z,2.03
2017-10-03T14:33:39.510Z,1.73
2017-10-03T14:36:07.081Z,2.40
2017-10-03T14:38:34.637Z,1.77
2017-10-03T14:41:02.185Z,2.03
2017-10-03T14:43:29.780Z,1.63
2017-10-03T14:46:06.081Z,2.00
2017-10-03T14:48:34.647Z,1.60
2017-10-03T14:51:03.258Z,1.80
2017-10-03T14:53:30.826Z,2.00
2017-10-03T14:55:58.388Z,2.03
2017-10-03T14:58:25.945Z,1.83
2017-10-03T15:00:53.518Z,1.60
2017-10-03T15:03:21.090Z,1.80
2017-10-03T15:05:48.646Z,1.97
2017-10-03T15:08:16.263Z,1.67
2017-10-03T15:10:43.838Z,1.80
2017-10-03T15:13:11.401Z,1.60
2017-10-03T15:15:38.950Z,1.90
2017-10-03T15:18:06.513Z,2.27
2017-10-03T15:20:34.062Z,1.77
2017-10-03T15:23:01.628Z,2.03
2017-10-03T15:25:29.209Z,1.80
2017-10-03T15:27:56.760Z,2.20
2017-10-03T15:30:24.342Z,2.13
2017-10-03T15:32:51.907Z,2.00
2017-10-03T15:35:19.473Z,2.03
2017-10-03T15:37:47.041Z,1.73
2017-10-03T15:40:14.582Z,2.03
2017-10-03T15:42:42.149Z,2.00
2017-10-03T15:45:09.763Z,1.70
2017-10-03T15:47:38.083Z,2.60
2017-10-03T15:50:05.621Z,5.33
2017-10-03T15:52:33.196Z,3.30
2017-10-03T15:55:00.730Z,3.60
2017-10-03T15:57:29.053Z,2.60
2017-10-03T16:00:29.860Z,2.77
2017-10-03T16:02:57.563Z,2.63
2017-10-03T16:05:25.169Z,2.67
2017-10-03T16:07:53.499Z,2.20
2017-10-03T16:10:21.923Z,3.40
2017-10-03T16:12:49.549Z,3.30
2017-10-03T16:15:17.126Z,2.30
2017-10-03T16:17:44.713Z,3.53
2017-10-03T16:20:13.047Z,3.50
2017-10-03T16:22:40.776Z,3.47
2017-10-03T16:25:08.350Z,4.80
2017-10-03T16:27:35.912Z,3.70
2017-10-03T16:30:03.469Z,3.23
2017-10-03T16:32:31.060Z,3.57
2017-10-03T16:34:58.638Z,3.80
2017-10-03T16:37:26.969Z,4.10
2017-10-03T16:39:54.566Z,3.93
2017-10-03T16:42:22.155Z,4.33
2017-10-03T16:44:50.474Z,4.97
2017-10-03T16:47:18.065Z,4.53
2017-10-03T16:49:45.673Z,4.70
2017-10-03T16:52:13.976Z,3.93
2017-10-03T16:54:41.558Z,3.40
2017-10-03T16:57:09.126Z,3.20
2017-10-03T16:59:36.698Z,2.90
2017-10-03T17:02:05.047Z,2.90
2017-10-03T17:04:32.602Z,3.40
2017-10-03T17:07:00.185Z,2.80
2017-10-03T17:09:27.750Z,2.77
2017-10-03T17:11:55.333Z,3.23
2017-10-03T17:14:23.664Z,3.20
2017-10-03T17:16:51.262Z,2.43
2017-10-03T17:19:19.614Z,3.20
2017-10-03T17:21:47.181Z,2.90
2017-10-03T17:24:15.309Z,2.97
2017-10-03T17:26:42.861Z,2.90
2017-10-03T17:29:10.431Z,2.90
2017-10-03T17:31:37.993Z,3.20
2017-10-03T17:34:05.560Z,2.83
2017-10-03T17:36:33.162Z,3.30
2017-10-03T17:39:01.555Z,2.90
2017-10-03T17:41:29.879Z,3.43
2017-10-03T17:43:59.680Z,3.10
2017-10-03T17:46:27.230Z,3.00
2017-10-03T17:48:54.792Z,3.37
2017-10-03T17:51:22.342Z,3.07
2017-10-03T17:53:49.930Z,3.57
2017-10-03T17:56:17.483Z,3.30
2017-10-03T17:58:45.097Z,3.30
2017-10-03T18:01:13.442Z,3.40
2017-10-03T18:03:41.049Z,3.20
2017-10-03T18:06:09.366Z,3.20
2017-10-03T18:08:36.918Z,2.97
2017-10-03T18:11:04.531Z,3.67
2017-10-03T18:13:32.159Z,3.40
2017-10-03T18:16:00.540Z,3.00
2017-10-03T18:21:05.755Z,3.63
2017-10-03T18:23:33.350Z,3.93
2017-10-03T18:26:00.908Z,5.10
2017-10-03T18:28:28.505Z,5.27
2017-10-03T18:30:56.079Z,5.07
2017-10-03T18:33:24.408Z,5.10
2017-10-03T18:35:51.999Z,5.33
2017-10-03T18:38:19.593Z,5.47
2017-10-03T18:40:47.168Z,5.10
2017-10-03T18:43:14.776Z,5.07
2017-10-03T18:48:49.375Z,6.40
2017-10-03T18:51:16.955Z,5.57
2017-10-03T18:53:44.533Z,4.90
2017-10-03T18:56:12.095Z,4.90
2017-10-03T18:58:39.662Z,4.90
2017-10-03T19:01:09.510Z,4.80
2017-10-03T19:03:38.887Z,4.93
2017-10-03T19:06:10.471Z,4.50
2017-10-03T19:08:39.003Z,4.63
2017-10-03T19:11:28.656Z,4.60
2017-10-03T19:13:56.272Z,5.40
2017-10-03T19:16:24.690Z,5.20
2017-10-03T19:18:58.527Z,5.27
2017-10-03T19:21:31.285Z,5.27
2017-10-03T19:23:59.270Z,6.00
2017-10-03T19:26:27.267Z,5.10
2017-10-03T19:28:55.225Z,5.03
2017-10-03T19:31:22.869Z,5.93
2017-10-03T19:33:50.427Z,5.47
2017-10-03T19:36:20.558Z,5.37
2017-10-03T19:38:57.791Z,5.40
2017-10-03T19:41:26.616Z,5.40
2017-10-03T19:43:55.583Z,4.97
2017-10-03T19:46:28.164Z,4.80
2017-10-03T19:48:58.011Z,5.63
2017-10-03T19:51:51.581Z,4.93
2017-10-03T19:54:30.830Z,5.20
2017-10-03T19:56:59.345Z,4.73
2017-10-03T19:59:39.024Z,4.90
2017-10-03T20:02:06.600Z,5.20
2017-10-03T20:04:34.740Z,5.70
2017-10-03T20:07:02.357Z,6.40
2017-10-03T20:09:29.943Z,10.40
2017-10-03T20:11:58.291Z,5.80
2017-10-03T20:14:25.897Z,5.40
2017-10-03T20:16:53.473Z,5.43
2017-10-03T20:19:21.672Z,5.10
2017-10-03T20:21:49.223Z,5.27
2017-10-03T20:24:16.809Z,5.20
2017-10-03T20:26:44.400Z,5.20
2017-10-03T20:29:11.958Z,5.87
2017-10-03T20:31:39.530Z,5.70
2017-10-03T20:34:07.880Z,5.47
2017-10-03T20:36:35.501Z,5.33
2017-10-03T20:39:03.101Z,4.87
2017-10-03T20:41:30.687Z,5.60
2017-10-03T20:43:58.266Z,5.80
2017-10-03T20:46:26.606Z,6.27
2017-10-03T20:48:54.176Z,11.30
2017-10-03T20:51:21.741Z,6.67
2017-10-03T20:53:49.398Z,7.80
2017-10-03T20:56:17.009Z,6.17
2017-10-03T20:58:44.598Z,6.33
2017-10-03T21:01:12.182Z,7.40
2017-10-03T21:03:39.795Z,7.80
2017-10-03T21:06:07.369Z,9.10
2017-10-03T21:08:34.974Z,9.00
2017-10-03T21:11:02.593Z,8.93
2017-10-03T21:13:30.170Z,9.33
2017-10-03T21:15:57.764Z,10.57
2017-10-03T21:18:26.165Z,10.80
2017-10-03T21:20:53.780Z,9.97
2017-10-03T21:23:21.364Z,9.60
2017-10-03T21:25:49.726Z,9.10
2017-10-03T21:28:17.311Z,23.50
2017-10-03T21:30:45.686Z,11.97
2017-10-03T21:33:14.015Z,9.67
2017-10-03T21:35:41.599Z,9.30
2017-10-03T21:38:09.230Z,8.60
2017-10-03T21:40:36.812Z,7.97
2017-10-03T21:43:11.330Z,8.10
2017-10-03T21:45:38.938Z,9.10
2017-10-03T21:48:07.264Z,7.83
2017-10-03T21:50:34.845Z,8.00
2017-10-03T21:53:02.482Z,8.40
2017-10-03T21:55:30.026Z,8.03
2017-10-03T21:57:57.602Z,8.00
2017-10-03T22:00:25.159Z,7.93
2017-10-03T22:02:52.767Z,8.10
2017-10-03T22:05:21.595Z,7.90
2017-10-03T22:07:49.151Z,8.53
2017-10-03T22:10:16.774Z,7.70
2017-10-03T22:12:45.104Z,7.53
2017-10-03T22:15:12.680Z,7.43
2017-10-03T22:17:40.316Z,6.70
2017-10-03T22:20:07.896Z,7.10
2017-10-03T22:22:35.481Z,6.13
2017-10-03T22:25:03.094Z,6.73
2017-10-03T22:27:30.683Z,6.73
2017-10-03T22:29:58.237Z,5.80
2017-10-03T22:32:25.818Z,6.07
2017-10-03T22:34:53.391Z,6.10
2017-10-03T22:37:20.968Z,6.60
2017-10-03T22:39:49.281Z,6.60
2017-10-03T22:42:16.839Z,6.43
2017-10-03T22:44:44.391Z,6.37
2017-10-03T22:47:11.959Z,6.00
2017-10-03T22:49:39.502Z,5.97
2017-10-03T22:52:12.598Z,6.37
2017-10-03T22:54:40.176Z,6.40
2017-10-03T22:57:07.718Z,5.83
2017-10-03T22:59:35.268Z,5.80
2017-10-03T23:02:02.844Z,5.87
2017-10-03T23:04:30.406Z,5.47
2017-10-03T23:06:57.977Z,6.30
2017-10-03T23:09:25.565Z,5.73
2017-10-03T23:11:53.129Z,6.23
2017-10-03T23:14:20.692Z,6.07
2017-10-03T23:16:48.265Z,5.90
2017-10-03T23:19:16.017Z,6.13
2017-10-03T23:21:43.577Z,5.87
2017-10-03T23:24:11.163Z,5.20
2017-10-03T23:26:39.482Z,5.40
2017-10-03T23:29:07.069Z,5.77
2017-10-03T23:31:34.642Z,5.97
2017-10-03T23:34:02.197Z,6.03
2017-10-03T23:36:29.783Z,6.10
2017-10-03T23:38:58.098Z,5.23
2017-10-03T23:41:25.634Z,6.13
2017-10-03T23:43:53.223Z,5.07
2017-10-03T23:46:20.792Z,6.20
2017-10-03T23:48:48.370Z,5.10
2017-10-03T23:51:15.944Z,5.70
2017-10-03T23:53:43.522Z,5.70
2017-10-03T23:56:11.847Z,5.60
2017-10-03T23:58:39.410Z,6.47
